sensor_id;sensor_type;location;lat;lon;timestamp;pressure;altitude;pressure_sealevel;temperature;humidity
29733;BME280;16643;43.158;25.302;2022-12-10T00:01:54;97346.25;;;10.51;100.00
29733;BME280;16643;43.158;25.302;2022-12-10T00:04:20;97338.69;;;10.47;100.00
29733;BME280;16643;43.158;25.302;2022-12-10T00:06:45;97342.91;;;10.49;100.00
29733;BME280;16643;43.158;25.302;2022-12-10T00:09:12;97344.94;;;10.62;100.00
29733;BME280;16643;43.158;25.302;2022-12-10T00:11:39;97344.63;;;10.69;100.00
29733;BME280;16643;43.158;25.302;2022-12-10T00:14:04;97347.03;;;10.94;100.00
29733;BME280;16643;43.158;25.302;2022-12-10T00:16:32;97346.03;;;10.97;100.00
29733;BME280;16643;43.158;25.302;2022-12-10T00:18:58;97343.22;;;11.01;100.00
29733;BME280;16643;43.158;25.302;2022-12-10T00:21:26;97338.88;;;11.02;100.00
29733;BME280;16643;43.158;25.302;2022-12-10T00:23:51;97330.16;;;11.03;100.00
29733;BME280;16643;43.158;25.302;2022-12-10T00:26:19;97333.81;;;10.99;100.00
29733;BME280;16643;43.158;25.302;2022-12-10T00:28:46;97329.66;;;10.95;100.00
29733;BME280;16643;43.158;25.302;2022-12-10T00:31:13;97325.81;;;11.03;100.00
29733;BME280;16643;43.158;25.302;2022-12-10T00:33:39;97324.84;;;11.06;100.00
29733;BME280;16643;43.158;25.302;2022-12-10T00:36:06;97324.06;;;11.04;100.00
29733;BME280;16643;43.158;25.302;2022-12-10T00:38:32;97330.16;;;11.21;100.00
29733;BME280;16643;43.158;25.302;2022-12-10T00:40:57;97328.06;;;11.29;100.00
29733;BME280;16643;43.158;25.302;2022-12-10T00:43:23;97320.91;;;11.35;100.00
29733;BME280;16643;43.158;25.302;2022-12-10T00:45:48;97321.66;;;11.55;100.00
29733;BME280;16643;43.158;25.302;2022-12-10T00:48:14;97318.41;;;11.69;100.00
29733;BME280;16643;43.158;25.302;2022-12-10T00:50:39;97307.31;;;11.84;100.00
29733;BME280;16643;43.158;25.302;2022-12-10T00:53:05;97324.22;;;11.93;99.55
29733;BME280;16643;43.158;25.302;2022-12-10T00:55:30;97324.69;;;11.84;100.00
29733;BME280;16643;43.158;25.302;2022-12-10T00:57:55;97331.47;;;11.68;100.00
29733;BME280;16643;43.158;25.302;2022-12-10T01:00:21;97323.03;;;11.62;100.00
29733;BME280;16643;43.158;25.302;2022-12-10T01:02:46;97323.97;;;11.61;100.00
29733;BME280;16643;43.158;25.302;2022-12-10T01:05:12;97313.41;;;11.64;100.00
29733;BME280;16643;43.158;25.302;2022-12-10T01:07:37;97312.28;;;11.70;100.00
29733;BME280;16643;43.158;25.302;2022-12-10T01:10:03;97319.84;;;11.75;100.00
29733;BME280;16643;43.158;25.302;2022-12-10T01:12:29;97311.50;;;11.68;100.00
29733;BME280;16643;43.158;25.302;2022-12-10T01:14:54;97315.03;;;11.67;100.00
29733;BME280;16643;43.158;25.302;2022-12-10T01:17:19;97311.19;;;11.74;100.00
29733;BME280;16643;43.158;25.302;2022-12-10T01:19:46;97314.16;;;11.85;100.00
29733;BME280;16643;43.158;25.302;2022-12-10T01:22:12;97305.53;;;11.85;100.00
29733;BME280;16643;43.158;25.302;2022-12-10T01:24:37;97309.41;;;11.76;100.00
29733;BME280;16643;43.158;25.302;2022-12-10T01:27:03;97306.59;;;11.81;100.00
29733;BME280;16643;43.158;25.302;2022-12-10T01:29:28;97312.78;;;11.78;100.00
29733;BME280;16643;43.158;25.302;2022-12-10T01:31:54;97311.88;;;11.60;100.00
29733;BME280;16643;43.158;25.302;2022-12-10T01:34:20;97310.84;;;11.27;100.00
29733;BME280;16643;43.158;25.302;2022-12-10T01:36:48;97306.81;;;11.20;100.00
29733;BME280;16643;43.158;25.302;2022-12-10T01:39:15;97305.13;;;11.19;100.00
29733;BME280;16643;43.158;25.302;2022-12-10T01:41:50;97297.78;;;11.28;100.00
29733;BME280;16643;43.158;25.302;2022-12-10T01:46:46;97297.06;;;11.25;100.00
29733;BME280;16643;43.158;25.302;2022-12-10T01:49:14;97296.69;;;11.33;100.00
29733;BME280;16643;43.158;25.302;2022-12-10T01:51:40;97296.13;;;11.45;100.00
29733;BME280;16643;43.158;25.302;2022-12-10T01:54:11;97291.50;;;11.33;100.00
29733;BME280;16643;43.158;25.302;2022-12-10T01:56:47;97294.19;;;11.12;100.00
29733;BME280;16643;43.158;25.302;2022-12-10T01:59:15;97291.03;;;11.06;100.00
29733;BME280;16643;43.158;25.302;2022-12-10T02:01:53;97293.69;;;11.04;100.00
29733;BME280;16643;43.158;25.302;2022-12-10T02:04:31;97292.19;;;11.17;100.00
29733;BME280;16643;43.158;25.302;2022-12-10T02:06:59;97293.81;;;11.20;100.00
29733;BME280;16643;43.158;25.302;2022-12-10T02:17:07;97286.44;;;10.92;100.00
29733;BME280;16643;43.158;25.302;2022-12-10T02:22:02;97287.41;;;10.71;100.00
29733;BME280;16643;43.158;25.302;2022-12-10T02:24:28;97291.94;;;10.66;100.00
29733;BME280;16643;43.158;25.302;2022-12-10T02:29:24;97288.16;;;10.73;100.00
29733;BME280;16643;43.158;25.302;2022-12-10T02:31:55;97287.66;;;10.65;100.00
29733;BME280;16643;43.158;25.302;2022-12-10T02:34:21;97290.16;;;10.86;100.00
29733;BME280;16643;43.158;25.302;2022-12-10T02:36:48;97293.34;;;10.93;100.00
29733;BME280;16643;43.158;25.302;2022-12-10T02:39:18;97291.22;;;11.01;100.00
29733;BME280;16643;43.158;25.302;2022-12-10T02:41:47;97293.28;;;10.95;100.00
29733;BME280;16643;43.158;25.302;2022-12-10T02:44:14;97300.34;;;10.91;100.00
29733;BME280;16643;43.158;25.302;2022-12-10T02:46:42;97300.97;;;10.96;100.00
29733;BME280;16643;43.158;25.302;2022-12-10T02:49:09;97298.47;;;10.95;100.00
29733;BME280;16643;43.158;25.302;2022-12-10T02:51:37;97297.13;;;11.05;100.00
29733;BME280;16643;43.158;25.302;2022-12-10T02:54:05;97278.78;;;11.08;100.00
29733;BME280;16643;43.158;25.302;2022-12-10T02:56:45;97282.28;;;11.07;100.00
29733;BME280;16643;43.158;25.302;2022-12-10T03:01:49;97265.78;;;11.26;100.00
29733;BME280;16643;43.158;25.302;2022-12-10T03:04:22;97269.66;;;11.54;100.00
29733;BME280;16643;43.158;25.302;2022-12-10T03:06:53;97272.38;;;11.70;100.00
29733;BME280;16643;43.158;25.302;2022-12-10T03:09:25;97276.03;;;11.65;100.00
29733;BME280;16643;43.158;25.302;2022-12-10T03:11:57;97275.44;;;11.60;100.00
29733;BME280;16643;43.158;25.302;2022-12-10T03:14:25;97270.91;;;11.83;100.00
29733;BME280;16643;43.158;25.302;2022-12-10T03:16:54;97266.63;;;11.99;100.00
29733;BME280;16643;43.158;25.302;2022-12-10T03:19:21;97259.28;;;11.90;100.00
29733;BME280;16643;43.158;25.302;2022-12-10T03:21:49;97260.81;;;11.94;100.00
29733;BME280;16643;43.158;25.302;2022-12-10T03:24:16;97254.13;;;11.88;100.00
29733;BME280;16643;43.158;25.302;2022-12-10T03:26:42;97259.00;;;11.96;100.00
29733;BME280;16643;43.158;25.302;2022-12-10T03:29:10;97266.81;;;11.96;99.90
29733;BME280;16643;43.158;25.302;2022-12-10T03:31:38;97262.41;;;11.96;99.55
29733;BME280;16643;43.158;25.302;2022-12-10T03:34:04;97269.53;;;11.93;100.00
29733;BME280;16643;43.158;25.302;2022-12-10T03:36:30;97266.63;;;11.99;100.00
29733;BME280;16643;43.158;25.302;2022-12-10T03:38:56;97261.97;;;12.06;98.82
29733;BME280;16643;43.158;25.302;2022-12-10T03:41:22;97255.22;;;12.02;100.00
29733;BME280;16643;43.158;25.302;2022-12-10T03:43:55;97260.34;;;12.03;98.60
29733;BME280;16643;43.158;25.302;2022-12-10T03:46:21;97267.50;;;12.17;97.94
29733;BME280;16643;43.158;25.302;2022-12-10T03:48:47;97271.16;;;12.13;98.53
29733;BME280;16643;43.158;25.302;2022-12-10T03:51:13;97270.38;;;12.11;99.15
29733;BME280;16643;43.158;25.302;2022-12-10T03:53:38;97272.22;;;12.26;96.28
29733;BME280;16643;43.158;25.302;2022-12-10T03:56:03;97261.09;;;12.40;96.19
29733;BME280;16643;43.158;25.302;2022-12-10T03:58:29;97260.56;;;12.50;95.09
29733;BME280;16643;43.158;25.302;2022-12-10T04:00:54;97252.97;;;12.46;95.76
29733;BME280;16643;43.158;25.302;2022-12-10T04:03:20;97250.13;;;12.33;99.10
29733;BME280;16643;43.158;25.302;2022-12-10T04:05:45;97256.59;;;12.26;98.54
29733;BME280;16643;43.158;25.302;2022-12-10T04:08:10;97249.78;;;12.23;98.06
29733;BME280;16643;43.158;25.302;2022-12-10T04:10:36;97246.88;;;12.12;99.35
29733;BME280;16643;43.158;25.302;2022-12-10T04:13:02;97255.59;;;12.11;100.00
29733;BME280;16643;43.158;25.302;2022-12-10T04:15:46;97255.91;;;12.22;99.62
29733;BME280;16643;43.158;25.302;2022-12-10T04:18:30;97250.84;;;12.02;100.00
29733;BME280;16643;43.158;25.302;2022-12-10T04:20:55;97248.53;;;11.79;100.00
29733;BME280;16643;43.158;25.302;2022-12-10T04:23:39;97256.63;;;11.73;100.00
29733;BME280;16643;43.158;25.302;2022-12-10T04:26:23;97256.38;;;11.60;100.00
29733;BME280;16643;43.158;25.302;2022-12-10T04:29:07;97254.75;;;11.57;100.00
29733;BME280;16643;43.158;25.302;2022-12-10T04:31:33;97254.38;;;11.65;100.00
29733;BME280;16643;43.158;25.302;2022-12-10T04:33:59;97258.25;;;11.75;100.00
29733;BME280;16643;43.158;25.302;2022-12-10T04:36:24;97255.50;;;11.78;100.00
29733;BME280;16643;43.158;25.302;2022-12-10T04:38:50;97257.28;;;11.78;100.00
29733;BME280;16643;43.158;25.302;2022-12-10T04:41:15;97251.25;;;11.58;100.00
29733;BME280;16643;43.158;25.302;2022-12-10T04:43:43;97250.03;;;11.65;100.00
29733;BME280;16643;43.158;25.302;2022-12-10T04:46:09;97259.09;;;11.76;100.00
29733;BME280;16643;43.158;25.302;2022-12-10T04:48:35;97252.97;;;11.77;100.00
29733;BME280;16643;43.158;25.302;2022-12-10T04:51:00;97247.13;;;11.72;100.00
29733;BME280;16643;43.158;25.302;2022-12-10T04:53:26;97244.47;;;11.73;100.00
29733;BME280;16643;43.158;25.302;2022-12-10T04:55:51;97249.94;;;11.67;100.00
29733;BME280;16643;43.158;25.302;2022-12-10T04:58:17;97257.69;;;11.69;100.00
29733;BME280;16643;43.158;25.302;2022-12-10T05:00:42;97255.78;;;11.72;100.00
29733;BME280;16643;43.158;25.302;2022-12-10T05:03:08;97255.13;;;11.86;100.00
29733;BME280;16643;43.158;25.302;2022-12-10T05:05:34;97251.47;;;12.07;100.00
29733;BME280;16643;43.158;25.302;2022-12-10T05:07:59;97243.50;;;12.10;100.00
29733;BME280;16643;43.158;25.302;2022-12-10T05:10:25;97248.63;;;11.94;100.00
29733;BME280;16643;43.158;25.302;2022-12-10T05:12:50;97252.94;;;11.95;100.00
29733;BME280;16643;43.158;25.302;2022-12-10T05:15:15;97254.06;;;11.90;100.00
29733;BME280;16643;43.158;25.302;2022-12-10T05:17:41;97257.28;;;11.95;100.00
29733;BME280;16643;43.158;25.302;2022-12-10T05:20:07;97250.78;;;12.04;100.00
29733;BME280;16643;43.158;25.302;2022-12-10T05:22:32;97256.91;;;12.03;100.00
29733;BME280;16643;43.158;25.302;2022-12-10T05:25:16;97261.28;;;12.02;100.00
29733;BME280;16643;43.158;25.302;2022-12-10T05:27:42;97264.03;;;11.99;100.00
29733;BME280;16643;43.158;25.302;2022-12-10T05:30:07;97270.22;;;11.96;100.00
29733;BME280;16643;43.158;25.302;2022-12-10T05:32:34;97260.19;;;11.89;100.00
29733;BME280;16643;43.158;25.302;2022-12-10T05:35:00;97268.38;;;11.81;100.00
29733;BME280;16643;43.158;25.302;2022-12-10T05:37:25;97251.16;;;11.79;100.00
29733;BME280;16643;43.158;25.302;2022-12-10T05:39:52;97266.56;;;11.83;100.00
29733;BME280;16643;43.158;25.302;2022-12-10T05:42:17;97264.03;;;11.82;100.00
29733;BME280;16643;43.158;25.302;2022-12-10T05:44:42;97265.16;;;11.76;100.00
29733;BME280;16643;43.158;25.302;2022-12-10T05:47:08;97270.38;;;11.75;100.00
29733;BME280;16643;43.158;25.302;2022-12-10T05:49:33;97266.69;;;11.80;100.00
29733;BME280;16643;43.158;25.302;2022-12-10T05:51:59;97264.09;;;11.80;100.00
29733;BME280;16643;43.158;25.302;2022-12-10T05:54:24;97263.50;;;11.92;100.00
29733;BME280;16643;43.158;25.302;2022-12-10T05:56:49;97270.16;;;11.81;100.00
29733;BME280;16643;43.158;25.302;2022-12-10T05:59:15;97266.47;;;11.85;100.00
29733;BME280;16643;43.158;25.302;2022-12-10T06:01:41;97260.19;;;11.89;100.00
29733;BME280;16643;43.158;25.302;2022-12-10T06:04:06;97274.06;;;11.89;100.00
29733;BME280;16643;43.158;25.302;2022-12-10T06:06:33;97272.16;;;11.93;100.00
29733;BME280;16643;43.158;25.302;2022-12-10T06:08:59;97272.09;;;11.94;100.00
29733;BME280;16643;43.158;25.302;2022-12-10T06:11:26;97274.63;;;11.96;100.00
29733;BME280;16643;43.158;25.302;2022-12-10T06:13:52;97271.84;;;11.99;100.00
29733;BME280;16643;43.158;25.302;2022-12-10T06:16:18;97272.38;;;12.06;100.00
29733;BME280;16643;43.158;25.302;2022-12-10T06:18:43;97280.19;;;12.06;100.00
29733;BME280;16643;43.158;25.302;2022-12-10T06:21:10;97280.72;;;12.12;100.00
29733;BME280;16643;43.158;25.302;2022-12-10T06:23:37;97285.88;;;12.14;100.00
29733;BME280;16643;43.158;25.302;2022-12-10T06:26:05;97277.66;;;12.21;100.00
29733;BME280;16643;43.158;25.302;2022-12-10T06:28:31;97279.72;;;12.32;100.00
29733;BME280;16643;43.158;25.302;2022-12-10T06:31:00;97280.56;;;12.32;100.00
29733;BME280;16643;43.158;25.302;2022-12-10T06:33:26;97276.81;;;12.38;100.00
29733;BME280;16643;43.158;25.302;2022-12-10T06:35:51;97275.97;;;12.38;100.00
29733;BME280;16643;43.158;25.302;2022-12-10T06:38:17;97271.59;;;12.38;100.00
29733;BME280;16643;43.158;25.302;2022-12-10T06:40:42;97266.16;;;12.43;100.00
29733;BME280;16643;43.158;25.302;2022-12-10T06:43:07;97264.38;;;12.43;100.00
29733;BME280;16643;43.158;25.302;2022-12-10T06:45:33;97273.88;;;12.61;100.00
29733;BME280;16643;43.158;25.302;2022-12-10T06:47:58;97273.38;;;12.70;99.72
29733;BME280;16643;43.158;25.302;2022-12-10T06:50:24;97274.94;;;12.75;98.57
29733;BME280;16643;43.158;25.302;2022-12-10T06:52:49;97270.22;;;12.81;99.52
29733;BME280;16643;43.158;25.302;2022-12-10T06:55:15;97260.06;;;12.92;98.83
29733;BME280;16643;43.158;25.302;2022-12-10T06:57:41;97272.19;;;12.93;98.00
29733;BME280;16643;43.158;25.302;2022-12-10T07:00:06;97265.50;;;12.88;100.00
29733;BME280;16643;43.158;25.302;2022-12-10T07:02:32;97266.03;;;12.94;99.50
29733;BME280;16643;43.158;25.302;2022-12-10T07:04:59;97264.94;;;12.98;99.78
29733;BME280;16643;43.158;25.302;2022-12-10T07:07:24;97255.25;;;13.00;100.00
29733;BME280;16643;43.158;25.302;2022-12-10T07:09:50;97256.56;;;13.09;100.00
29733;BME280;16643;43.158;25.302;2022-12-10T07:12:15;97260.16;;;13.06;100.00
29733;BME280;16643;43.158;25.302;2022-12-10T07:14:41;97252.56;;;13.19;97.14
29733;BME280;16643;43.158;25.302;2022-12-10T07:17:06;97262.41;;;13.30;99.11
29733;BME280;16643;43.158;25.302;2022-12-10T07:19:31;97260.97;;;13.40;96.00
29733;BME280;16643;43.158;25.302;2022-12-10T07:21:57;97263.06;;;13.49;98.35
29733;BME280;16643;43.158;25.302;2022-12-10T07:24:22;97263.81;;;13.51;97.63
29733;BME280;16643;43.158;25.302;2022-12-10T07:26:48;97263.47;;;13.57;96.59
29733;BME280;16643;43.158;25.302;2022-12-10T07:29:15;97264.06;;;13.62;98.12
29733;BME280;16643;43.158;25.302;2022-12-10T07:31:41;97265.56;;;13.66;96.55
29733;BME280;16643;43.158;25.302;2022-12-10T07:34:07;97270.09;;;13.78;95.14
29733;BME280;16643;43.158;25.302;2022-12-10T07:36:32;97253.25;;;13.84;95.12
29733;BME280;16643;43.158;25.302;2022-12-10T07:38:58;97252.16;;;13.88;98.01
29733;BME280;16643;43.158;25.302;2022-12-10T07:41:23;97249.00;;;13.97;97.04
29733;BME280;16643;43.158;25.302;2022-12-10T07:43:49;97258.91;;;14.06;96.33
29733;BME280;16643;43.158;25.302;2022-12-10T07:48:44;97261.88;;;14.30;96.42
29733;BME280;16643;43.158;25.302;2022-12-10T07:51:10;97263.09;;;14.39;92.62
29733;BME280;16643;43.158;25.302;2022-12-10T07:53:35;97249.34;;;14.51;95.01
29733;BME280;16643;43.158;25.302;2022-12-10T07:56:01;97250.00;;;14.55;94.80
29733;BME280;16643;43.158;25.302;2022-12-10T07:58:26;97242.88;;;14.57;95.04
29733;BME280;16643;43.158;25.302;2022-12-10T08:00:52;97237.56;;;14.58;95.32
29733;BME280;16643;43.158;25.302;2022-12-10T08:03:17;97234.13;;;14.72;90.78
29733;BME280;16643;43.158;25.302;2022-12-10T08:05:43;97230.47;;;14.88;91.00
29733;BME280;16643;43.158;25.302;2022-12-10T08:08:08;97227.47;;;14.95;90.09
29733;BME280;16643;43.158;25.302;2022-12-10T08:10:37;97226.34;;;14.99;92.92
29733;BME280;16643;43.158;25.302;2022-12-10T08:13:03;97224.38;;;15.02;94.34
29733;BME280;16643;43.158;25.302;2022-12-10T08:15:29;97227.03;;;15.29;94.07
29733;BME280;16643;43.158;25.302;2022-12-10T08:17:54;97229.88;;;15.53;88.67
29733;BME280;16643;43.158;25.302;2022-12-10T08:20:20;97229.88;;;15.53;88.60
29733;BME280;16643;43.158;25.302;2022-12-10T08:22:45;97227.25;;;15.53;91.38
29733;BME280;16643;43.158;25.302;2022-12-10T08:25:11;97230.16;;;15.48;87.13
29733;BME280;16643;43.158;25.302;2022-12-10T08:27:36;97229.13;;;15.51;89.68
29733;BME280;16643;43.158;25.302;2022-12-10T08:30:02;97230.16;;;15.63;88.41
29733;BME280;16643;43.158;25.302;2022-12-10T08:32:27;97227.75;;;15.99;85.51
29733;BME280;16643;43.158;25.302;2022-12-10T08:34:52;97231.91;;;16.54;86.26
29733;BME280;16643;43.158;25.302;2022-12-10T08:37:18;97221.22;;;16.69;81.33
29733;BME280;16643;43.158;25.302;2022-12-10T08:39:43;97218.44;;;16.96;84.81
29733;BME280;16643;43.158;25.302;2022-12-10T08:42:09;97213.72;;;17.01;83.77
29733;BME280;16643;43.158;25.302;2022-12-10T08:44:34;97218.22;;;17.12;83.89
29733;BME280;16643;43.158;25.302;2022-12-10T08:47:00;97214.22;;;17.06;79.64
29733;BME280;16643;43.158;25.302;2022-12-10T08:49:36;97203.72;;;17.06;82.37
29733;BME280;16643;43.158;25.302;2022-12-10T08:52:01;97197.31;;;17.11;81.77
29733;BME280;16643;43.158;25.302;2022-12-10T08:54:26;97197.00;;;17.15;84.73
29733;BME280;16643;43.158;25.302;2022-12-10T08:56:52;97174.91;;;17.18;83.18
29733;BME280;16643;43.158;25.302;2022-12-10T08:59:17;97184.66;;;17.16;81.93
29733;BME280;16643;43.158;25.302;2022-12-10T09:01:43;97188.97;;;17.17;80.75
29733;BME280;16643;43.158;25.302;2022-12-10T09:04:08;97179.84;;;17.22;83.36
29733;BME280;16643;43.158;25.302;2022-12-10T09:06:34;97177.09;;;17.24;81.03
29733;BME280;16643;43.158;25.302;2022-12-10T09:09:00;97175.31;;;17.24;80.46
29733;BME280;16643;43.158;25.302;2022-12-10T09:11:27;97175.81;;;17.29;82.96
29733;BME280;16643;43.158;25.302;2022-12-10T09:13:53;97175.47;;;17.34;79.04
29733;BME280;16643;43.158;25.302;2022-12-10T09:16:18;97161.28;;;17.36;81.66
29733;BME280;16643;43.158;25.302;2022-12-10T09:18:44;97152.72;;;17.46;81.43
29733;BME280;16643;43.158;25.302;2022-12-10T09:21:10;97147.25;;;17.49;82.17
29733;BME280;16643;43.158;25.302;2022-12-10T09:23:37;97140.22;;;17.49;85.09
29733;BME280;16643;43.158;25.302;2022-12-10T09:26:10;97146.63;;;17.45;81.79
29733;BME280;16643;43.158;25.302;2022-12-10T09:28:36;97140.91;;;17.51;82.80
29733;BME280;16643;43.158;25.302;2022-12-10T09:31:02;97136.50;;;17.75;78.43
29733;BME280;16643;43.158;25.302;2022-12-10T09:33:29;97127.13;;;18.06;79.60
29733;BME280;16643;43.158;25.302;2022-12-10T09:35:54;97119.28;;;18.40;78.00
29733;BME280;16643;43.158;25.302;2022-12-10T09:38:20;97117.28;;;18.66;74.19
29733;BME280;16643;43.158;25.302;2022-12-10T09:45:58;97100.84;;;18.96;71.75
29733;BME280;16643;43.158;25.302;2022-12-10T09:53:22;97089.09;;;19.32;65.40
29733;BME280;16643;43.158;25.302;2022-12-10T09:55:49;97069.19;;;19.50;65.96
29733;BME280;16643;43.158;25.302;2022-12-10T09:58:19;97061.66;;;19.66;65.46
29733;BME280;16643;43.158;25.302;2022-12-10T10:00:54;97063.66;;;19.74;65.76
29733;BME280;16643;43.158;25.302;2022-12-10T10:03:20;97055.34;;;19.78;65.74
29733;BME280;16643;43.158;25.302;2022-12-10T10:05:47;97063.31;;;19.88;62.91
29733;BME280;16643;43.158;25.302;2022-12-10T10:10:41;97052.00;;;19.97;63.04
29733;BME280;16643;43.158;25.302;2022-12-10T10:15:33;97049.91;;;20.01;64.74
29733;BME280;16643;43.158;25.302;2022-12-10T10:18:04;97044.50;;;20.02;60.69
29733;BME280;16643;43.158;25.302;2022-12-10T10:20:34;97039.41;;;20.10;63.04
29733;BME280;16643;43.158;25.302;2022-12-10T10:23:00;97041.13;;;20.21;59.43
29733;BME280;16643;43.158;25.302;2022-12-10T10:25:25;97035.75;;;20.32;60.50
29733;BME280;16643;43.158;25.302;2022-12-10T10:27:51;97019.75;;;20.24;59.74
29733;BME280;16643;43.158;25.302;2022-12-10T10:30:18;97021.00;;;20.20;65.44
29733;BME280;16643;43.158;25.302;2022-12-10T10:32:46;97018.59;;;20.38;61.06
29733;BME280;16643;43.158;25.302;2022-12-10T10:38:35;97022.25;;;20.56;58.81
29733;BME280;16643;43.158;25.302;2022-12-10T10:40:43;97020.31;;;20.58;59.40
29733;BME280;16643;43.158;25.302;2022-12-10T10:43:18;97022.94;;;20.48;60.09
29733;BME280;16643;43.158;25.302;2022-12-10T10:45:48;97011.81;;;20.54;57.20
29733;BME280;16643;43.158;25.302;2022-12-10T10:48:18;97006.28;;;20.67;60.65
29733;BME280;16643;43.158;25.302;2022-12-10T10:50:45;97013.25;;;20.78;58.36
29733;BME280;16643;43.158;25.302;2022-12-10T10:55:46;97017.81;;;20.66;57.44
29733;BME280;16643;43.158;25.302;2022-12-10T10:58:21;97014.50;;;20.64;59.24
29733;BME280;16643;43.158;25.302;2022-12-10T11:00:53;97019.78;;;20.74;56.41
29733;BME280;16643;43.158;25.302;2022-12-10T11:03:19;97012.72;;;20.84;57.25
29733;BME280;16643;43.158;25.302;2022-12-10T11:05:47;97009.94;;;20.85;60.08
29733;BME280;16643;43.158;25.302;2022-12-10T11:08:15;97004.94;;;20.92;59.57
29733;BME280;16643;43.158;25.302;2022-12-10T11:10:57;97011.31;;;20.80;56.39
29733;BME280;16643;43.158;25.302;2022-12-10T11:13:28;96997.00;;;20.73;57.14
29733;BME280;16643;43.158;25.302;2022-12-10T11:16:01;97002.53;;;20.60;59.28
29733;BME280;16643;43.158;25.302;2022-12-10T11:18:35;96989.56;;;20.47;59.86
29733;BME280;16643;43.158;25.302;2022-12-10T11:21:03;96972.63;;;20.50;64.24
29733;BME280;16643;43.158;25.302;2022-12-10T11:23:30;96981.22;;;20.42;59.75
29733;BME280;16643;43.158;25.302;2022-12-10T11:25:58;96971.97;;;20.27;60.95
29733;BME280;16643;43.158;25.302;2022-12-10T11:28:31;96966.84;;;20.25;63.25
29733;BME280;16643;43.158;25.302;2022-12-10T11:31:05;96974.16;;;20.22;66.33
29733;BME280;16643;43.158;25.302;2022-12-10T11:33:40;96972.75;;;20.08;65.12
29733;BME280;16643;43.158;25.302;2022-12-10T11:41:18;96964.66;;;20.00;67.19
29733;BME280;16643;43.158;25.302;2022-12-10T11:59:31;96947.00;;;19.61;77.15
29733;BME280;16643;43.158;25.302;2022-12-10T12:07:30;96945.03;;;19.83;75.79
29733;BME280;16643;43.158;25.302;2022-12-10T12:12:31;96929.28;;;19.72;75.91
29733;BME280;16643;43.158;25.302;2022-12-10T12:15:03;96930.13;;;19.73;76.08
29733;BME280;16643;43.158;25.302;2022-12-10T12:17:43;96930.34;;;19.39;81.52
29733;BME280;16643;43.158;25.302;2022-12-10T12:22:42;96914.88;;;19.04;83.93
29733;BME280;16643;43.158;25.302;2022-12-10T12:25:15;96915.16;;;19.11;83.86
29733;BME280;16643;43.158;25.302;2022-12-10T12:27:43;96902.06;;;19.20;83.85
29733;BME280;16643;43.158;25.302;2022-12-10T12:30:13;96908.16;;;19.21;83.13
29733;BME280;16643;43.158;25.302;2022-12-10T12:35:36;96905.41;;;19.22;82.96
29733;BME280;16643;43.158;25.302;2022-12-10T12:38:07;96907.16;;;19.12;84.33
29733;BME280;16643;43.158;25.302;2022-12-10T12:40:49;96906.00;;;19.05;82.68
29733;BME280;16643;43.158;25.302;2022-12-10T12:43:16;96913.63;;;19.08;81.64
29733;BME280;16643;43.158;25.302;2022-12-10T12:45:43;96920.00;;;19.06;81.85
29733;BME280;16643;43.158;25.302;2022-12-10T12:51:05;96919.34;;;18.93;82.57
29733;BME280;16643;43.158;25.302;2022-12-10T12:53:31;96926.66;;;18.89;82.83
29733;BME280;16643;43.158;25.302;2022-12-10T12:56:12;96929.41;;;18.88;82.40
29733;BME280;16643;43.158;25.302;2022-12-10T12:58:46;96904.94;;;18.76;82.70
29733;BME280;16643;43.158;25.302;2022-12-10T13:01:28;96903.06;;;18.67;82.59
29733;BME280;16643;43.158;25.302;2022-12-10T13:03:57;96903.19;;;18.54;83.23
29733;BME280;16643;43.158;25.302;2022-12-10T13:06:28;96887.28;;;18.56;84.33
29733;BME280;16643;43.158;25.302;2022-12-10T13:11:41;96885.41;;;18.58;85.64
29733;BME280;16643;43.158;25.302;2022-12-10T13:32:21;96872.75;;;17.97;85.46
29733;BME280;16643;43.158;25.302;2022-12-10T13:35:41;96874.31;;;17.89;83.73
29733;BME280;16643;43.158;25.302;2022-12-10T13:40:54;96876.97;;;17.66;86.72
29733;BME280;16643;43.158;25.302;2022-12-10T13:42:45;96882.47;;;17.63;85.75
29733;BME280;16643;43.158;25.302;2022-12-10T13:45:31;96886.41;;;17.58;87.77
29733;BME280;16643;43.158;25.302;2022-12-10T13:50:42;96877.44;;;17.60;88.12
29733;BME280;16643;43.158;25.302;2022-12-10T14:01:05;96865.50;;;17.34;91.45
29733;BME280;16643;43.158;25.302;2022-12-10T14:06:13;96854.25;;;17.21;91.10
29733;BME280;16643;43.158;25.302;2022-12-10T14:08:40;96848.16;;;17.09;90.75
29733;BME280;16643;43.158;25.302;2022-12-10T14:11:12;96844.56;;;16.99;91.74
29733;BME280;16643;43.158;25.302;2022-12-10T14:13:41;96838.56;;;16.86;93.48
29733;BME280;16643;43.158;25.302;2022-12-10T14:16:12;96834.66;;;16.80;94.33
29733;BME280;16643;43.158;25.302;2022-12-10T14:18:41;96834.72;;;16.67;95.75
29733;BME280;16643;43.158;25.302;2022-12-10T14:21:07;96836.06;;;16.49;94.71
29733;BME280;16643;43.158;25.302;2022-12-10T14:23:33;96842.41;;;16.47;95.62
29733;BME280;16643;43.158;25.302;2022-12-10T14:26:10;96849.31;;;16.48;96.30
29733;BME280;16643;43.158;25.302;2022-12-10T14:28:44;96838.19;;;16.44;98.33
29733;BME280;16643;43.158;25.302;2022-12-10T14:31:12;96829.94;;;16.38;97.62
29733;BME280;16643;43.158;25.302;2022-12-10T14:33:38;96818.53;;;16.15;98.75
29733;BME280;16643;43.158;25.302;2022-12-10T14:36:04;96807.59;;;15.97;99.35
29733;BME280;16643;43.158;25.302;2022-12-10T14:38:31;96809.44;;;15.84;99.84
29733;BME280;16643;43.158;25.302;2022-12-10T14:40:58;96815.34;;;15.75;99.97
29733;BME280;16643;43.158;25.302;2022-12-10T14:43:45;96817.44;;;15.70;100.00